createdAt,value
2019-02-11T00:01:13.874Z,2.90
2019-02-11T00:03:42.374Z,2.90
2019-02-11T00:06:10.999Z,2.90
2019-02-11T00:08:39.555Z,2.90
2019-02-11T00:11:08.092Z,3.00
2019-02-11T00:13:36.584Z,2.90
2019-02-11T00:16:05.101Z,2.90
2019-02-11T00:18:33.593Z,2.90
2019-02-11T00:21:02.061Z,2.90
2019-02-11T00:23:30.527Z,2.80
2019-02-11T00:25:59.008Z,2.80
2019-02-11T00:28:27.471Z,2.80
2019-02-11T00:30:56.026Z,2.70
2019-02-11T00:33:24.571Z,2.70
2019-02-11T00:35:53.088Z,2.80
2019-02-11T00:38:21.653Z,2.80
2019-02-11T00:40:50.146Z,2.80
2019-02-11T00:43:19.439Z,2.70
2019-02-11T00:45:48.128Z,2.70
2019-02-11T00:48:16.720Z,2.60
2019-02-11T00:50:45.343Z,2.50
2019-02-11T00:53:13.887Z,2.60
2019-02-11T00:55:42.499Z,2.60
2019-02-11T00:58:10.997Z,2.60
2019-02-11T01:00:39.605Z,2.70
2019-02-11T01:03:08.066Z,2.70
2019-02-11T01:05:36.581Z,2.70
2019-02-11T01:08:05.078Z,2.70
2019-02-11T01:10:33.611Z,2.80
2019-02-11T01:13:02.179Z,2.80
2019-02-11T01:15:30.813Z,2.90
2019-02-11T01:17:59.315Z,2.80
2019-02-11T01:20:27.888Z,2.80
2019-02-11T01:22:56.467Z,2.80
2019-02-11T01:25:25.043Z,2.80
2019-02-11T01:27:53.550Z,2.90
2019-02-11T01:30:22.102Z,2.80
2019-02-11T01:32:50.559Z,2.80
2019-02-11T01:35:19.102Z,2.80
2019-02-11T01:37:47.643Z,2.80
2019-02-11T01:40:16.184Z,2.80
2019-02-11T01:42:44.712Z,2.80
2019-02-11T01:45:13.552Z,2.80
2019-02-11T01:47:42.141Z,2.80
2019-02-11T01:50:12.312Z,2.70
2019-02-11T01:52:40.754Z,2.80
2019-02-11T01:55:09.410Z,2.80
2019-02-11T01:57:37.944Z,2.80
2019-02-11T02:00:09.838Z,2.80
2019-02-11T02:02:38.394Z,2.80
2019-02-11T02:05:08.190Z,2.80
2019-02-11T02:07:36.769Z,2.70
2019-02-11T02:10:08.656Z,2.70
2019-02-11T02:12:37.234Z,2.60
2019-02-11T02:15:07.242Z,2.50
2019-02-11T02:17:35.812Z,2.40
2019-02-11T02:20:06.798Z,2.40
2019-02-11T02:22:35.328Z,2.30
2019-02-11T02:25:04.403Z,2.20
2019-02-11T02:27:32.901Z,2.10
2019-02-11T02:30:01.416Z,2.10
2019-02-11T02:32:29.964Z,1.90
2019-02-11T02:35:01.333Z,1.80
2019-02-11T02:37:29.940Z,1.60
2019-02-11T02:39:58.503Z,1.50
2019-02-11T02:42:26.996Z,1.40
2019-02-11T02:44:55.563Z,1.40
2019-02-11T02:47:24.155Z,1.40
2019-02-11T02:49:52.692Z,1.30
2019-02-11T02:52:21.184Z,1.30
2019-02-11T02:54:49.666Z,1.10
2019-02-11T02:57:19.135Z,1.00
2019-02-11T02:59:47.633Z,1.00
2019-02-11T03:02:16.191Z,0.90
2019-02-11T03:04:44.742Z,0.90
2019-02-11T03:07:13.296Z,0.90
2019-02-11T03:09:41.884Z,0.90
2019-02-11T03:12:10.356Z,0.90
2019-02-11T03:14:38.869Z,0.90
2019-02-11T03:17:07.414Z,0.90
2019-02-11T03:19:35.985Z,1.00
2019-02-11T03:22:04.521Z,1.00
2019-02-11T03:24:33.113Z,1.10
2019-02-11T03:27:01.695Z,1.10
2019-02-11T03:29:30.314Z,1.10
2019-02-11T03:31:59.947Z,1.10
2019-02-11T03:34:28.681Z,1.20
2019-02-11T03:36:57.223Z,1.10
2019-02-11T03:39:26.883Z,1.10
2019-02-11T03:41:55.342Z,1.10
2019-02-11T03:44:23.879Z,1.10
2019-02-11T03:46:52.485Z,1.20
2019-02-11T03:49:21.014Z,1.20
2019-02-11T03:51:49.587Z,1.20
2019-02-11T03:54:18.206Z,1.20
2019-02-11T03:56:46.781Z,1.30
2019-02-11T03:59:15.357Z,1.30
2019-02-11T04:01:43.918Z,1.30
2019-02-11T04:04:12.461Z,1.30
2019-02-11T04:06:40.909Z,1.40
2019-02-11T04:09:09.524Z,1.30
2019-02-11T04:11:38.113Z,1.40
2019-02-11T04:14:06.630Z,1.40
2019-02-11T04:16:35.092Z,1.30
2019-02-11T04:19:03.595Z,1.30
2019-02-11T04:21:32.065Z,1.40
2019-02-11T04:24:00.598Z,1.30
2019-02-11T04:26:30.768Z,1.30
2019-02-11T04:28:59.263Z,1.20
2019-02-11T04:31:27.802Z,1.20
2019-02-11T04:33:58.270Z,1.20
2019-02-11T04:36:26.618Z,1.10
2019-02-11T04:38:55.217Z,1.10
2019-02-11T04:41:23.777Z,1.10
2019-02-11T04:43:52.396Z,1.20
2019-02-11T04:46:20.939Z,1.30
2019-02-11T04:48:49.467Z,1.30
2019-02-11T04:51:17.947Z,1.30
2019-02-11T04:53:46.466Z,1.40
2019-02-11T04:56:14.958Z,1.30
2019-02-11T04:58:43.561Z,1.30
2019-02-11T05:01:12.121Z,1.30
2019-02-11T05:03:40.725Z,1.20
2019-02-11T05:06:09.257Z,1.20
2019-02-11T05:08:37.828Z,1.20
2019-02-11T05:11:06.421Z,1.10
2019-02-11T05:13:34.994Z,1.10
2019-02-11T05:16:03.527Z,1.10
2019-02-11T05:18:32.124Z,1.10
2019-02-11T05:21:00.722Z,1.10
2019-02-11T05:23:29.212Z,1.10
2019-02-11T05:25:57.790Z,1.10
2019-02-11T05:28:26.360Z,1.20
2019-02-11T05:30:54.891Z,1.10
2019-02-11T05:33:23.449Z,1.20
2019-02-11T05:35:52.093Z,1.20
2019-02-11T05:38:20.645Z,1.10
2019-02-11T05:40:49.275Z,1.10
2019-02-11T05:43:17.816Z,1.10
2019-02-11T05:45:46.432Z,1.00
2019-02-11T05:48:14.957Z,1.00
2019-02-11T05:50:43.580Z,0.90
2019-02-11T05:53:12.169Z,0.90
2019-02-11T05:55:40.758Z,0.80
2019-02-11T05:58:09.291Z,0.80
2019-02-11T06:00:37.877Z,0.80
2019-02-11T06:03:06.456Z,0.70
2019-02-11T06:05:35.015Z,0.70
2019-02-11T06:08:03.594Z,0.70
2019-02-11T06:10:32.161Z,0.70
2019-02-11T06:13:00.696Z,0.70
2019-02-11T06:15:29.222Z,0.70
2019-02-11T06:17:57.683Z,0.70
2019-02-11T06:20:26.222Z,0.70
2019-02-11T06:22:54.809Z,0.70
2019-02-11T06:25:23.465Z,0.70
2019-02-11T06:27:52.046Z,0.70
2019-02-11T06:30:20.631Z,0.70
2019-02-11T06:32:49.237Z,0.60
2019-02-11T06:35:17.770Z,0.60
2019-02-11T06:37:46.386Z,0.70
2019-02-11T06:40:15.144Z,0.70
2019-02-11T06:42:43.731Z,0.70
2019-02-11T06:45:13.452Z,0.80
2019-02-11T06:47:42.139Z,0.80
2019-02-11T06:50:13.709Z,0.80
2019-02-11T06:52:42.314Z,0.80
2019-02-11T06:55:14.994Z,0.80
2019-02-11T06:57:43.641Z,0.80
2019-02-11T07:00:14.164Z,0.80
2019-02-11T07:02:42.700Z,0.80
2019-02-11T07:05:11.417Z,0.80
2019-02-11T07:07:39.911Z,0.80
2019-02-11T07:10:10.985Z,0.80
2019-02-11T07:12:39.518Z,0.80
2019-02-11T07:15:21.220Z,0.80
2019-02-11T07:17:43.054Z,0.70
2019-02-11T07:20:11.745Z,0.70
2019-02-11T07:22:40.245Z,0.60
2019-02-11T07:25:10.170Z,0.60
2019-02-11T07:27:39.695Z,0.50
2019-02-11T07:30:13.253Z,0.50
2019-02-11T07:32:41.833Z,0.50
2019-02-11T07:35:10.466Z,0.50
2019-02-11T07:37:39.119Z,0.50
2019-02-11T07:40:11.008Z,0.50
2019-02-11T07:42:45.214Z,0.50
2019-02-11T07:45:29.936Z,0.50
2019-02-11T07:47:55.464Z,0.50
2019-02-11T07:50:26.217Z,0.50
2019-02-11T07:52:56.739Z,0.50
2019-02-11T07:55:28.870Z,0.50
2019-02-11T07:57:58.232Z,0.60
2019-02-11T08:00:27.905Z,0.60
2019-02-11T08:02:57.825Z,0.60
2019-02-11T08:05:28.180Z,0.60
2019-02-11T08:07:57.868Z,0.60
2019-02-11T08:10:31.198Z,0.60
2019-02-11T08:13:03.388Z,0.60
2019-02-11T08:15:38.688Z,0.70
2019-02-11T08:18:14.267Z,0.60
2019-02-11T08:20:49.586Z,0.70
2019-02-11T08:23:23.044Z,0.70
2019-02-11T08:25:53.572Z,0.70
2019-02-11T08:28:24.778Z,0.80
2019-02-11T08:31:01.210Z,0.80
2019-02-11T08:33:32.928Z,0.80
2019-02-11T09:04:56.254Z,1.00
2019-02-11T09:10:44.566Z,1.10
2019-02-11T09:20:35.089Z,1.10
2019-02-11T09:23:43.724Z,1.10
2019-02-11T09:26:16.626Z,1.10
2019-02-11T09:28:47.735Z,1.20
2019-02-11T09:31:20.453Z,1.20
2019-02-11T09:33:50.311Z,1.20
2019-02-11T09:36:21.954Z,1.20
2019-02-11T09:38:52.068Z,1.20
2019-02-11T09:41:22.674Z,1.20
2019-02-11T09:43:55.008Z,1.30
2019-02-11T09:46:26.173Z,1.30
2019-02-11T09:48:56.567Z,1.30
2019-02-11T09:51:32.734Z,1.30
2019-02-11T09:54:02.942Z,1.40
2019-02-11T09:56:33.169Z,1.30
2019-02-11T09:59:06.739Z,1.30
2019-02-11T10:01:39.995Z,1.40
2019-02-11T10:04:10.537Z,1.40
2019-02-11T10:06:39.382Z,1.40
2019-02-11T10:09:11.968Z,1.30
2019-02-11T10:11:42.025Z,1.30
2019-02-11T10:14:11.002Z,1.30
2019-02-11T10:16:45.656Z,1.30
2019-02-11T10:19:15.905Z,1.30
2019-02-11T10:21:52.823Z,1.20
2019-02-11T10:24:23.066Z,1.30
2019-02-11T10:26:55.129Z,1.30
2019-02-11T10:29:27.560Z,1.30
2019-02-11T10:31:57.009Z,1.40
2019-02-11T10:34:32.918Z,1.30
2019-02-11T10:37:03.782Z,1.40
2019-02-11T10:39:34.914Z,1.40
2019-02-11T10:42:05.516Z,1.30
2019-02-11T10:44:41.257Z,1.40
2019-02-11T10:47:11.094Z,1.50
2019-02-11T10:49:39.887Z,1.50
2019-02-11T10:52:14.757Z,1.60
2019-02-11T10:54:44.488Z,1.70
2019-02-11T10:57:14.310Z,1.80
2019-02-11T10:59:42.939Z,1.80
2019-02-11T11:02:11.582Z,1.80
2019-02-11T11:04:40.073Z,1.80
2019-02-11T11:07:08.697Z,1.70
2019-02-11T11:09:37.432Z,1.70
2019-02-11T11:12:08.200Z,1.70
2019-02-11T11:14:36.991Z,1.70
2019-02-11T11:17:07.282Z,1.70
2019-02-11T11:19:36.023Z,1.80
2019-02-11T11:22:05.014Z,1.90
2019-02-11T11:24:35.270Z,2.00
2019-02-11T11:27:04.343Z,2.00
2019-02-11T11:29:36.074Z,2.10
2019-02-11T11:32:09.275Z,2.10
2019-02-11T11:34:38.846Z,2.30
2019-02-11T11:37:07.616Z,2.40
2019-02-11T11:39:38.237Z,2.50
2019-02-11T11:42:08.678Z,2.50
2019-02-11T11:44:37.503Z,2.60
2019-02-11T11:47:06.367Z,2.70
2019-02-11T11:49:35.466Z,2.80
2019-02-11T11:52:08.023Z,3.00
2019-02-11T11:54:36.938Z,3.20
2019-02-11T11:57:08.889Z,3.20
2019-02-11T11:59:37.512Z,3.20
2019-02-11T12:02:06.139Z,3.20
2019-02-11T12:04:34.729Z,3.20
2019-02-11T12:07:03.583Z,3.20
2019-02-11T12:09:32.170Z,3.10
2019-02-11T12:12:00.700Z,3.10
2019-02-11T12:14:29.276Z,3.20
2019-02-11T12:17:02.809Z,3.10
2019-02-11T12:19:28.072Z,3.00
2019-02-11T12:21:56.649Z,2.80
2019-02-11T12:24:25.190Z,2.70
2019-02-11T12:26:53.768Z,2.60
2019-02-11T12:29:22.307Z,2.60
2019-02-11T12:31:50.955Z,2.70
2019-02-11T12:34:19.510Z,2.60
2019-02-11T12:36:48.152Z,2.70
2019-02-11T12:39:16.947Z,2.70
2019-02-11T12:41:45.455Z,2.80
2019-02-11T12:44:14.106Z,2.80
2019-02-11T12:46:42.656Z,2.90
2019-02-11T12:49:11.311Z,3.10
2019-02-11T12:51:39.948Z,3.30
2019-02-11T12:54:08.494Z,3.50
2019-02-11T12:56:37.044Z,3.50
2019-02-11T12:59:05.690Z,3.70
2019-02-11T13:01:34.323Z,3.70
2019-02-11T13:04:02.917Z,3.60
2019-02-11T13:06:31.468Z,3.40
2019-02-11T13:09:00.033Z,3.30
2019-02-11T13:11:28.573Z,3.40
2019-02-11T13:13:57.163Z,3.20
2019-02-11T13:16:25.692Z,3.20
2019-02-11T13:18:54.264Z,3.10
2019-02-11T13:21:22.812Z,2.90
2019-02-11T13:23:51.384Z,2.90
2019-02-11T13:26:19.931Z,2.90
2019-02-11T13:28:48.501Z,2.80
2019-02-11T13:31:16.969Z,2.80
2019-02-11T13:33:45.577Z,2.70
2019-02-11T13:36:14.226Z,2.60
2019-02-11T13:38:42.814Z,2.50
2019-02-11T13:41:11.354Z,2.50
2019-02-11T13:43:39.881Z,2.50
2019-02-11T13:46:08.453Z,2.50
2019-02-11T13:48:36.995Z,2.60
2019-02-11T13:51:05.637Z,2.60
2019-02-11T13:53:34.261Z,2.60
2019-02-11T13:56:05.457Z,2.60
2019-02-11T13:58:34.145Z,2.70
2019-02-11T14:01:02.852Z,2.60
2019-02-11T14:03:31.445Z,2.70
2019-02-11T14:06:00.026Z,2.60
2019-02-11T14:08:28.688Z,2.60
2019-02-11T14:10:57.265Z,2.60
2019-02-11T14:13:25.881Z,2.90
2019-02-11T14:15:54.521Z,3.10
2019-02-11T14:18:23.210Z,3.40
2019-02-11T14:20:51.671Z,3.30
2019-02-11T14:23:20.270Z,3.20
2019-02-11T14:25:48.776Z,3.30
2019-02-11T14:28:17.530Z,3.20
2019-02-11T14:30:46.199Z,3.10
2019-02-11T14:33:14.857Z,3.10
2019-02-11T14:35:43.397Z,3.00
2019-02-11T14:38:11.867Z,2.90
2019-02-11T14:40:40.462Z,2.80
2019-02-11T14:43:09.042Z,2.70
2019-02-11T14:45:37.589Z,2.70
2019-02-11T14:48:06.239Z,2.60
2019-02-11T14:50:34.817Z,2.60
2019-02-11T14:53:03.360Z,2.60
2019-02-11T14:55:31.866Z,2.50
2019-02-11T14:58:00.460Z,2.40
2019-02-11T15:00:29.019Z,2.30
2019-02-11T15:02:57.789Z,2.30
2019-02-11T15:05:26.457Z,2.30
2019-02-11T15:07:54.917Z,2.30
2019-02-11T15:10:23.433Z,2.30
2019-02-11T15:12:52.011Z,2.40
2019-02-11T15:15:20.589Z,2.40
2019-02-11T15:17:49.121Z,2.40
2019-02-11T15:20:17.896Z,2.50
2019-02-11T15:22:46.413Z,2.50
2019-02-11T15:25:16.824Z,2.50
2019-02-11T15:27:45.298Z,2.50
2019-02-11T15:30:15.897Z,2.40
2019-02-11T15:32:44.474Z,2.40
2019-02-11T15:35:13.103Z,2.40
2019-02-11T15:37:41.666Z,2.40
2019-02-11T15:40:22.146Z,2.30
2019-02-11T15:42:50.943Z,2.30
2019-02-11T15:45:19.516Z,2.20
2019-02-11T15:47:48.087Z,2.20
2019-02-11T15:50:17.794Z,2.20
2019-02-11T15:52:46.372Z,2.20
2019-02-11T15:55:19.876Z,2.10
2019-02-11T15:57:48.446Z,2.10
2019-02-11T16:00:22.677Z,2.10
2019-02-11T16:02:51.839Z,2.10
2019-02-11T16:05:20.642Z,2.10
2019-02-11T16:07:49.265Z,2.10
2019-02-11T16:10:26.387Z,2.10
2019-02-11T16:12:55.049Z,2.10
2019-02-11T16:15:23.741Z,2.10
2019-02-11T16:17:52.391Z,2.10
2019-02-11T16:20:21.050Z,2.00
2019-02-11T16:22:49.675Z,2.00
2019-02-11T16:25:18.336Z,2.10
2019-02-11T16:27:46.994Z,2.10
2019-02-11T16:30:20.215Z,2.10
2019-02-11T16:32:48.871Z,2.10
2019-02-11T16:35:18.287Z,2.10
2019-02-11T16:37:46.858Z,2.20
2019-02-11T16:40:24.291Z,2.10
2019-02-11T16:42:52.822Z,2.10
2019-02-11T16:45:21.377Z,1.90
2019-02-11T16:47:49.957Z,1.80
2019-02-11T16:50:18.703Z,1.70
2019-02-11T16:52:47.342Z,1.60
2019-02-11T16:55:15.895Z,1.40
2019-02-11T16:57:44.468Z,1.30
2019-02-11T17:00:20.422Z,1.30
2019-02-11T17:02:49.040Z,1.30
2019-02-11T17:05:17.507Z,1.40
2019-02-11T17:07:46.089Z,1.50
2019-02-11T17:10:15.382Z,1.50
2019-02-11T17:12:44.036Z,1.50
2019-02-11T17:15:14.589Z,1.40
2019-02-11T17:17:43.154Z,1.40
2019-02-11T17:20:15.871Z,1.50
2019-02-11T17:22:45.912Z,1.50
2019-02-11T17:25:15.402Z,1.40
2019-02-11T17:27:44.126Z,1.40
2019-02-11T17:30:27.333Z,1.40
2019-02-11T17:32:55.836Z,1.40
2019-02-11T17:35:24.356Z,1.30
2019-02-11T17:37:52.919Z,1.30
2019-02-11T17:40:21.496Z,1.30
2019-02-11T17:42:50.080Z,1.30
2019-02-11T17:45:26.605Z,1.30
2019-02-11T17:47:55.219Z,1.30
2019-02-11T17:50:23.921Z,1.30
2019-02-11T17:52:55.334Z,1.30
2019-02-11T17:55:23.809Z,1.30
2019-02-11T17:57:52.399Z,1.30
2019-02-11T18:00:28.289Z,1.40
2019-02-11T18:02:56.826Z,1.40
2019-02-11T18:05:25.324Z,1.40
2019-02-11T18:07:53.892Z,1.40
2019-02-11T18:10:22.360Z,1.40
2019-02-11T18:12:50.964Z,1.40
2019-02-11T18:15:19.417Z,1.40
2019-02-11T18:17:47.912Z,1.40
2019-02-11T18:20:16.504Z,1.40
2019-02-11T18:22:44.964Z,1.40
2019-02-11T18:25:13.676Z,1.40
2019-02-11T18:27:42.219Z,1.40
2019-02-11T18:30:15.855Z,1.40
2019-02-11T18:32:44.649Z,1.40
2019-02-11T18:35:15.037Z,1.40
2019-02-11T18:37:43.592Z,1.40
2019-02-11T18:40:15.581Z,1.40
2019-02-11T18:42:44.270Z,1.40
2019-02-11T18:45:16.671Z,1.40
2019-02-11T18:47:45.298Z,1.30
2019-02-11T18:50:14.938Z,1.30
2019-02-11T18:52:43.550Z,1.30
2019-02-11T18:55:13.981Z,1.30
2019-02-11T18:57:42.659Z,1.30
2019-02-11T19:00:14.172Z,1.40
2019-02-11T19:02:42.829Z,1.40
2019-02-11T19:05:18.055Z,1.40
2019-02-11T19:07:46.679Z,1.50
2019-02-11T19:10:20.032Z,1.40
2019-02-11T19:12:48.640Z,1.40
2019-02-11T19:15:18.484Z,1.40
2019-02-11T19:17:47.078Z,1.50
2019-02-11T19:20:16.582Z,1.50
2019-02-11T19:22:45.233Z,1.50
2019-02-11T19:25:14.002Z,1.50
2019-02-11T19:27:42.591Z,1.50
2019-02-11T19:30:22.447Z,1.50
2019-02-11T19:32:51.196Z,1.50
2019-02-11T19:35:19.715Z,1.50
2019-02-11T19:37:48.301Z,1.40
2019-02-11T19:40:21.479Z,1.40
2019-02-11T19:42:50.271Z,1.40
2019-02-11T19:45:21.205Z,1.40
2019-02-11T19:47:53.220Z,1.30
2019-02-11T19:50:22.424Z,1.30
2019-02-11T19:52:51.977Z,1.30
2019-02-11T19:55:22.727Z,1.30
2019-02-11T19:57:51.391Z,1.20
2019-02-11T20:00:22.064Z,1.10
2019-02-11T20:02:50.879Z,1.20
2019-02-11T20:05:19.601Z,1.20
2019-02-11T20:07:50.908Z,1.20
2019-02-11T20:10:21.632Z,1.20
2019-02-11T20:12:50.338Z,1.20
2019-02-11T20:15:27.500Z,1.20
2019-02-11T20:17:56.205Z,1.20
2019-02-11T20:20:27.287Z,1.20
2019-02-11T20:22:55.854Z,1.20
2019-02-11T20:25:24.456Z,1.30
2019-02-11T20:27:52.978Z,1.30
2019-02-11T20:30:26.837Z,1.30
2019-02-11T20:32:55.346Z,1.30
2019-02-11T20:35:24.328Z,1.30
2019-02-11T20:37:52.811Z,1.30
2019-02-11T20:40:23.977Z,1.30
2019-02-11T20:42:52.450Z,1.30
2019-02-11T20:45:24.014Z,1.30
2019-02-11T20:47:52.660Z,1.30
2019-02-11T20:50:21.175Z,1.30
2019-02-11T20:52:49.694Z,1.30
2019-02-11T20:55:18.250Z,1.40
2019-02-11T20:57:49.070Z,1.40
2019-02-11T21:00:22.619Z,1.40
2019-02-11T21:02:51.315Z,1.40
2019-02-11T21:05:20.020Z,1.40
2019-02-11T21:07:48.545Z,1.40
2019-02-11T21:10:20.184Z,1.40
2019-02-11T21:12:48.822Z,1.40
2019-02-11T21:15:17.558Z,1.40
2019-02-11T21:17:47.378Z,1.40
2019-02-11T21:20:24.369Z,1.30
2019-02-11T21:22:55.260Z,1.30
2019-02-11T21:25:23.937Z,1.20
2019-02-11T21:27:52.547Z,1.20
2019-02-11T21:30:22.645Z,1.20
2019-02-11T21:32:52.169Z,1.20
2019-02-11T21:35:22.633Z,1.10
2019-02-11T21:37:52.179Z,1.20
2019-02-11T21:40:21.288Z,1.20
2019-02-11T21:42:52.929Z,1.30
2019-02-11T21:45:22.492Z,1.20
2019-02-11T21:47:51.874Z,1.20
2019-02-11T21:50:26.638Z,1.20
2019-02-11T21:52:54.320Z,1.20
2019-02-11T21:55:25.214Z,1.10
2019-02-11T21:57:56.890Z,1.10
2019-02-11T22:00:26.184Z,1.10
2019-02-11T22:02:56.416Z,1.10
2019-02-11T22:05:26.597Z,1.10
2019-02-11T22:07:55.888Z,1.10
2019-02-11T22:10:24.620Z,1.10
2019-02-11T22:12:53.087Z,1.10
2019-02-11T22:15:23.408Z,1.00
2019-02-11T22:17:55.753Z,1.00
2019-02-11T22:20:24.623Z,1.00
2019-02-11T22:22:54.875Z,1.00
2019-02-11T22:25:24.131Z,1.00
2019-02-11T22:27:54.831Z,1.00
2019-02-11T22:30:25.518Z,1.00
2019-02-11T22:32:55.812Z,1.00
2019-02-11T22:35:27.280Z,1.00
2019-02-11T22:37:57.199Z,1.00
2019-02-11T22:40:26.415Z,1.00
2019-02-11T22:42:58.184Z,1.00
2019-02-11T22:45:28.807Z,1.00
2019-02-11T22:47:59.027Z,1.00
2019-02-11T22:50:29.143Z,1.10
2019-02-11T22:53:06.154Z,1.10
2019-02-11T22:55:35.607Z,1.20
2019-02-11T22:58:05.627Z,1.20
2019-02-11T23:00:47.331Z,1.20
2019-02-11T23:03:27.047Z,1.20
2019-02-11T23:06:21.566Z,1.20
2019-02-11T23:08:50.943Z,1.20
2019-02-11T23:11:20.307Z,1.10
2019-02-11T23:13:50.378Z,1.20
2019-02-11T23:16:20.600Z,1.10
2019-02-11T23:18:50.677Z,1.10
2019-02-11T23:21:20.623Z,1.10
2019-02-11T23:23:50.124Z,1.10
2019-02-11T23:26:21.086Z,1.10
2019-02-11T23:28:55.212Z,1.10
2019-02-11T23:31:25.283Z,1.10
2019-02-11T23:33:54.504Z,1.10
2019-02-11T23:36:24.042Z,1.00
2019-02-11T23:38:54.204Z,0.90
2019-02-11T23:41:24.069Z,0.90
2019-02-11T23:43:53.489Z,0.80
2019-02-11T23:46:22.798Z,0.80
2019-02-11T23:48:52.801Z,0.70
2019-02-11T23:51:23.222Z,0.70
2019-02-11T23:53:52.567Z,0.60
2019-02-11T23:56:21.042Z,0.60
2019-02-11T23:58:50.846Z,0.60
